Engenheiro Navarro, Brazil
Current Conditions -  °F | °C
As of 7:00 PM on Thursday 18 Dec 2014 (Local Time) from SBMK Reporting Station
Few Clouds Few Clouds  
Wind Chill: 86°   Ceiling: Unl
Heat Index: 86°   Visibility: 6mi
Dew Point: 54°   Wind: 3mph
Humidity: 33%   Direction: 160°SSE
Pressure: 29.83"   Gusts: NA
Location:  17.28°S, 43.94°W
Report Text: SBMK 182100Z 16003KT 9999 FEW045 30/12 Q1010
Loading
Personal Weather Stations






























Interactive Weather Map New forecast layout! Learn more

10-Day Weather Forecast

Advertisements
Track Severe Weather on mobile